Time;durP1;ratioP1;P1;durP2;ratioP2;P2;SDS_P1;SDS_P2;PMS_P1;PMS_P2;Temp;Humidity;BMP_temperature;BMP_pressure;BME280_temperature;BME280_humidity;BME280_pressure;Samples;Min_cycle;Max_cycle;Signal;HPM_P1;HPM_P2
2023/02/08 00:00:04;;;;;;;;;;;;;;;3.76;37.81;100498.09;4983423;28;19963;-73
2023/02/08 00:02:29;;;;;;;;;;;;;;;3.74;37.85;100495.53;4984898;28;19917;-73
2023/02/08 00:04:54;;;;;;;;;;;;;;;3.75;37.41;100496.41;4983125;28;19982;-73
2023/02/08 00:07:20;;;;;;;;;;;;;;;3.77;37.40;100499.78;4982021;28;20519;-73
2023/02/08 00:09:45;;;;;;;;;;;;;;;3.77;37.49;100502.38;4983005;28;19917;-73
2023/02/08 00:12:10;;;;;;;;;;;;;;;3.77;37.43;100498.06;4984698;28;19924;-73
2023/02/08 00:14:36;;;;;;;;;;;;;;;3.76;37.33;100498.09;4983238;28;20336;-73
2023/02/08 00:17:01;;;;;;;;;;;;;;;3.74;37.28;100500.69;5000956;28;19925;-73
2023/02/08 00:19:26;;;;;;;;;;;;;;;3.73;37.17;100504.19;4984870;28;20395;-73
2023/02/08 00:21:51;;;;;;;;;;;;;;;3.73;36.85;100508.47;5000005;28;19926;-74
2023/02/08 00:24:17;;;;;;;;;;;;;;;3.72;36.57;100506.78;5001481;28;19917;-73
2023/02/08 00:26:42;;;;;;;;;;;;;;;3.72;36.96;100514.53;4984040;28;19957;-76
2023/02/08 00:29:07;;;;;;;;;;;;;;;3.71;36.52;100507.66;4982584;28;20348;-73
2023/02/08 00:31:33;;;;;;;;;;;;;;;3.72;36.35;100519.72;5001755;28;19917;-74
2023/02/08 00:33:58;;;;;;;;;;;;;;;3.71;36.55;100518.00;5000891;28;19918;-73
2023/02/08 00:36:23;;;;;;;;;;;;;;;3.71;36.35;100516.25;5000383;28;20300;-73
2023/02/08 00:38:49;;;;;;;;;;;;;;;3.71;36.00;100520.56;5002172;28;19924;-72
2023/02/08 00:41:14;;;;;;;;;;;;;;;3.70;36.29;100524.03;5001076;28;20004;-73
2023/02/08 00:43:39;;;;;;;;;;;;;;;3.69;35.92;100523.19;4982219;28;19976;-73
2023/02/08 00:46:05;;;;;;;;;;;;;;;3.70;36.19;100522.31;4982808;28;20004;-73
2023/02/08 00:48:30;;;;;;;;;;;;;;;3.69;36.21;100522.34;4984331;28;20071;-73
2023/02/08 00:50:56;;;;;;;;;;;;;;;3.69;36.26;100520.59;4982857;28;19928;-74
2023/02/08 00:53:22;;;;;;;;;;;;;;;3.66;36.38;100523.25;4968944;28;20036;-76
2023/02/08 00:55:51;;;;;;;;;;;;;;;3.66;36.04;100533.56;4999570;28;20088;-75
2023/02/08 00:58:16;;;;;;;;;;;;;;;3.65;36.34;100537.03;5001217;28;19943;-74
2023/02/08 01:00:41;;;;;;;;;;;;;;;3.64;35.87;100535.34;5004451;28;19932;-73
2023/02/08 01:03:06;;;;;;;;;;;;;;;3.65;35.67;100537.03;4976374;28;20277;-74
2023/02/08 01:05:32;;;;;;;;;;;;;;;3.66;36.32;100548.22;4968331;28;19925;-76
2023/02/08 01:07:57;;;;;;;;;;;;;;;3.65;35.95;100546.53;4982385;28;19997;-73
2023/02/08 01:10:22;;;;;;;;;;;;;;;3.65;36.14;100544.78;4980382;28;19922;-76
2023/02/08 01:12:48;;;;;;;;;;;;;;;3.66;36.12;100540.47;4984520;28;19924;-74
2023/02/08 01:15:13;;;;;;;;;;;;;;;3.66;36.07;100537.91;4968445;28;19918;-73
2023/02/08 01:17:38;;;;;;;;;;;;;;;3.65;36.10;100537.03;4990388;28;19918;-72
2023/02/08 01:20:04;;;;;;;;;;;;;;;3.66;35.95;100540.47;4979840;28;20557;-73
2023/02/08 01:22:29;;;;;;;;;;;;;;;3.64;36.22;100537.94;4977539;28;19968;-73
2023/02/08 01:24:54;;;;;;;;;;;;;;;3.67;35.72;100548.19;4984062;28;19918;-73
2023/02/08 01:27:20;;;;;;;;;;;;;;;3.65;36.07;100542.19;4990608;28;19922;-73
2023/02/08 01:29:45;;;;;;;;;;;;;;;3.65;35.85;100541.34;4971428;28;20360;-73
2023/02/08 01:32:10;;;;;;;;;;;;;;;3.67;36.08;100548.19;4988161;28;20008;-75
2023/02/08 01:34:36;;;;;;;;;;;;;;;3.66;35.67;100554.25;4979497;28;19976;-72
2023/02/08 01:37:01;;;;;;;;;;;;;;;3.66;35.81;100558.56;4986759;28;19929;-73
2023/02/08 01:39:26;;;;;;;;;;;;;;;3.66;36.25;100559.41;4985138;28;19917;-74
2023/02/08 01:41:52;;;;;;;;;;;;;;;3.68;35.79;100559.38;4988289;28;20388;-73
2023/02/08 01:44:17;;;;;;;;;;;;;;;3.66;35.99;100559.41;4986852;28;20381;-74
2023/02/08 01:46:43;;;;;;;;;;;;;;;3.66;36.01;100556.81;4987406;28;20021;-76
2023/02/08 01:49:13;;;;;;;;;;;;;;;3.69;35.75;100548.19;4987767;28;19953;-74
2023/02/08 01:51:39;;;;;;;;;;;;;;;3.68;36.01;100561.97;4964656;28;19983;-74
2023/02/08 01:54:04;;;;;;;;;;;;;;;3.68;36.18;100562.81;4987731;28;20388;-74
2023/02/08 01:56:34;;;;;;;;;;;;;;;3.69;36.27;100559.34;4966800;28;19929;-75
2023/02/08 01:58:59;;;;;;;;;;;;;;;3.68;36.21;100565.38;4986212;28;19925;-74
2023/02/08 02:01:25;;;;;;;;;;;;;;;3.68;35.83;100569.72;4972240;28;19918;-75
2023/02/08 02:03:50;;;;;;;;;;;;;;;3.66;36.17;100564.56;4979379;28;19917;-74
2023/02/08 02:06:17;;;;;;;;;;;;;;;3.66;36.28;100567.16;4968748;28;19924;-74
2023/02/08 02:08:44;;;;;;;;;;;;;;;3.65;35.97;100564.59;4984497;28;19928;-74
2023/02/08 02:11:09;;;;;;;;;;;;;;;3.62;36.35;100565.50;4979612;28;19944;-74
2023/02/08 02:13:35;;;;;;;;;;;;;;;3.65;36.34;100570.59;4987705;28;20380;-74
2023/02/08 02:16:00;;;;;;;;;;;;;;;3.62;36.79;100568.06;4983556;28;19925;-74
2023/02/08 02:18:26;;;;;;;;;;;;;;;3.60;36.76;100564.69;4979532;28;19917;-74
2023/02/08 02:20:57;;;;;;;;;;;;;;;3.59;36.67;100573.28;5002314;28;20101;-75
2023/02/08 02:23:41;;;;;;;;;;;;;;;3.56;36.78;100571.63;4971714;28;19969;-76
2023/02/08 02:26:11;;;;;;;;;;;;;;;3.57;37.14;100578.53;5004242;28;19917;-74
2023/02/08 02:28:45;;;;;;;;;;;;;;;3.55;36.88;100575.09;4985840;28;19917;-74
2023/02/08 02:31:11;;;;;;;;;;;;;;;3.56;37.05;100584.56;5001683;28;19976;-74
2023/02/08 02:33:52;;;;;;;;;;;;;;;3.55;36.93;100587.16;5005442;28;20362;-75
2023/02/08 02:36:23;;;;;;;;;;;;;;;3.56;37.07;100591.47;4982747;28;19924;-74
2023/02/08 02:38:55;;;;;;;;;;;;;;;3.55;37.11;100584.59;5007464;28;20048;-74
2023/02/08 02:43:40;;;;;;;;;;;;;;;3.55;37.17;100588.00;5001727;28;19924;-73
2023/02/08 02:44:06;;;;;;;;;;;;;;;3.57;37.21;100590.56;5003704;28;20008;-73
2023/02/08 02:46:39;;;;;;;;;;;;;;;3.56;37.59;100589.72;4984882;28;19929;-74
2023/02/08 02:49:06;;;;;;;;;;;;;;;3.55;37.59;100566.50;4968211;28;19941;-74
2023/02/08 02:51:34;;;;;;;;;;;;;;;3.55;37.38;100566.50;4968550;28;20408;-74
2023/02/08 02:54:08;;;;;;;;;;;;;;;3.54;37.66;100575.13;4989548;28;19918;-74
2023/02/08 02:56:34;;;;;;;;;;;;;;;3.52;37.55;100588.06;4999346;28;20037;-75
2023/02/08 02:59:01;;;;;;;;;;;;;;;3.50;37.73;100612.22;4990094;28;19925;-73
2023/02/08 03:01:28;;;;;;;;;;;;;;;3.47;37.74;100607.94;4968317;28;19917;-74
2023/02/08 03:03:54;;;;;;;;;;;;;;;3.44;37.59;100605.41;4967874;28;20014;-75
2023/02/08 03:06:24;;;;;;;;;;;;;;;3.40;37.59;100608.91;4986826;28;20360;-73
2023/02/08 03:09:08;;;;;;;;;;;;;;;3.38;37.97;100603.78;4965365;28;20398;-73
2023/02/08 03:11:34;;;;;;;;;;;;;;;3.35;38.14;100605.56;4992816;28;19917;-74
2023/02/08 03:14:19;;;;;;;;;;;;;;;3.35;38.33;100596.13;4977571;28;20507;-72
2023/02/08 03:16:50;;;;;;;;;;;;;;;3.33;38.17;100597.84;4983170;28;19918;-72
2023/02/08 03:19:16;;;;;;;;;;;;;;;3.33;38.40;100604.75;4998720;28;19918;-73
2023/02/08 03:21:44;;;;;;;;;;;;;;;3.33;38.39;100612.50;4993285;28;19932;-73
2023/02/08 03:24:18;;;;;;;;;;;;;;;3.30;38.40;100610.81;4986137;28;19921;-74
2023/02/08 03:26:53;;;;;;;;;;;;;;;3.30;38.56;100612.53;5000896;28;19925;-73
2023/02/08 03:29:27;;;;;;;;;;;;;;;3.26;38.54;100610.00;5007657;28;19924;-74
2023/02/08 03:31:59;;;;;;;;;;;;;;;3.25;38.67;100613.47;4978638;28;19922;-74
2023/02/08 03:34:27;;;;;;;;;;;;;;;3.24;38.48;100613.47;4970025;28;20000;-75
2023/02/08 03:36:54;;;;;;;;;;;;;;;3.21;38.48;100613.53;4996333;28;19922;-74
2023/02/08 03:39:24;;;;;;;;;;;;;;;3.20;38.60;100625.59;4975768;28;19924;-74
2023/02/08 03:41:50;;;;;;;;;;;;;;;3.18;38.78;100618.75;4978762;28;19924;-74
2023/02/08 03:44:17;;;;;;;;;;;;;;;3.17;38.66;100619.63;4981881;28;19996;-73
2023/02/08 03:46:45;;;;;;;;;;;;;;;3.15;39.22;100623.97;4992717;28;19921;-74
2023/02/08 03:49:14;;;;;;;;;;;;;;;3.14;39.11;100630.84;4978530;28;19918;-74
2023/02/08 03:51:39;;;;;;;;;;;;;;;3.15;39.00;100631.72;4984567;28;20013;-74
2023/02/08 03:54:05;;;;;;;;;;;;;;;3.13;39.00;100628.28;4965380;28;20013;-74
2023/02/08 03:56:35;;;;;;;;;;;;;;;3.12;39.27;100642.09;4982189;28;19922;-75
2023/02/08 03:59:01;;;;;;;;;;;;;;;3.12;38.98;100645.50;4975220;28;20397;-74
2023/02/08 04:01:28;;;;;;;;;;;;;;;3.13;39.25;100649.81;4975570;28;19956;-74
2023/02/08 04:03:53;;;;;;;;;;;;;;;3.13;39.34;100652.38;4959744;28;19918;-74
2023/02/08 04:06:19;;;;;;;;;;;;;;;3.14;39.30;100645.47;4962938;28;19918;-74
2023/02/08 04:08:44;;;;;;;;;;;;;;;3.13;39.05;100651.50;4975217;28;19918;-75
2023/02/08 04:11:10;;;;;;;;;;;;;;;3.15;39.28;100644.63;4975669;28;19994;-75
2023/02/08 04:13:35;;;;;;;;;;;;;;;3.14;39.71;100653.22;4995400;28;19918;-74
2023/02/08 04:16:00;;;;;;;;;;;;;;;3.15;39.57;100663.53;5002909;28;19933;-75
2023/02/08 04:18:25;;;;;;;;;;;;;;;3.16;39.37;100667.78;4960329;28;19988;-75
2023/02/08 04:20:51;;;;;;;;;;;;;;;3.15;39.38;100671.28;4989754;28;20430;-74
2023/02/08 04:23:16;;;;;;;;;;;;;;;3.16;39.42;100680.69;4978350;28;20374;-75
2023/02/08 04:25:41;;;;;;;;;;;;;;;3.18;39.15;100680.69;4978899;28;19927;-74
2023/02/08 04:28:07;;;;;;;;;;;;;;;3.18;39.08;100693.59;5012347;28;20012;-74
2023/02/08 04:30:32;;;;;;;;;;;;;;;3.19;38.98;100693.56;4995533;28;19964;-75
2023/02/08 04:32:58;;;;;;;;;;;;;;;3.19;39.13;100696.13;4978533;28;19913;-74
2023/02/08 04:35:24;;;;;;;;;;;;;;;3.20;39.11;100695.28;4995541;28;19924;-76
2023/02/08 04:37:49;;;;;;;;;;;;;;;3.22;39.29;100697.84;4975699;28;19917;-77
2023/02/08 04:40:14;;;;;;;;;;;;;;;3.21;39.47;100701.28;4984348;28;19918;-76
2023/02/08 04:42:40;;;;;;;;;;;;;;;3.24;39.46;100708.97;4983698;28;19914;-75
2023/02/08 04:45:05;;;;;;;;;;;;;;;3.23;39.54;100705.56;4983332;28;20407;-75
2023/02/08 04:47:31;;;;;;;;;;;;;;;3.22;39.50;100714.16;4982085;28;19957;-74
2023/02/08 04:49:56;;;;;;;;;;;;;;;3.23;39.73;100713.31;4984394;28;19921;-74
2023/02/08 04:52:21;;;;;;;;;;;;;;;3.22;39.60;100711.59;5001736;28;20420;-72
2023/02/08 04:54:46;;;;;;;;;;;;;;;3.22;39.76;100721.06;4986536;28;19922;-76
2023/02/08 04:57:12;;;;;;;;;;;;;;;3.22;39.58;100723.66;4989307;28;19933;-74
2023/02/08 04:59:38;;;;;;;;;;;;;;;3.23;39.74;100718.47;4985243;28;19924;-75
2023/02/08 05:02:03;;;;;;;;;;;;;;;3.23;39.93;100731.38;4980928;28;19960;-74
2023/02/08 05:04:29;;;;;;;;;;;;;;;3.25;40.17;100727.03;4989152;28;19933;-73
2023/02/08 05:06:54;;;;;;;;;;;;;;;3.27;40.73;100734.75;5003672;28;19921;-78
2023/02/08 05:09:19;;;;;;;;;;;;;;;3.59;59.71;100736.00;4986442;28;19972;-75
2023/02/08 05:11:45;;;;;;;;;;;;;;;3.86;63.93;100752.81;4978859;28;19980;-79
2023/02/08 05:14:10;;;;;;;;;;;;;;;4.16;64.37;100751.44;4980180;28;19925;-75
2023/02/08 05:16:35;;;;;;;;;;;;;;;4.17;59.19;100747.09;5003706;28;19922;-77
2023/02/08 05:19:01;;;;;;;;;;;;;;;4.10;56.95;100741.19;4979341;28;19924;-75
2023/02/08 05:21:26;;;;;;;;;;;;;;;4.35;68.40;100751.13;4987245;28;19925;-76
2023/02/08 05:23:51;;;;;;;;;;;;;;;4.40;61.96;100740.69;4986023;28;20357;-74
2023/02/08 05:26:17;;;;;;;;;;;;;;;4.35;57.93;100743.34;4980169;28;19917;-75
2023/02/08 05:28:42;;;;;;;;;;;;;;;4.29;55.96;100748.63;4985911;28;20363;-73
2023/02/08 05:31:14;;;;;;;;;;;;;;;4.19;54.24;100745.38;4987253;28;19918;-71
2023/02/08 05:33:39;;;;;;;;;;;;;;;4.13;52.51;100760.97;4970770;28;20419;-71
2023/02/08 05:36:05;;;;;;;;;;;;;;;4.09;51.50;100757.56;5002248;28;19948;-75
2023/02/08 05:38:30;;;;;;;;;;;;;;;4.07;50.25;100759.34;4983017;28;19924;-74
2023/02/08 05:40:56;;;;;;;;;;;;;;;4.06;49.50;100757.63;4986797;28;19917;-72
2023/02/08 05:43:21;;;;;;;;;;;;;;;4.08;48.33;100753.31;4986550;28;19918;-73
2023/02/08 05:45:48;;;;;;;;;;;;;;;4.11;47.84;100745.50;4986949;28;19961;-72
2023/02/08 05:48:13;;;;;;;;;;;;;;;4.15;46.93;100748.88;4970949;28;19917;-73
2023/02/08 05:50:38;;;;;;;;;;;;;;;4.19;46.46;100754.84;4985728;28;19941;-71
2023/02/08 05:53:04;;;;;;;;;;;;;;;4.27;45.46;100752.97;4985900;28;19922;-73
2023/02/08 05:55:29;;;;;;;;;;;;;;;4.43;44.41;100750.94;4984153;28;19972;-73
2023/02/08 05:57:54;;;;;;;;;;;;;;;4.51;44.16;100747.34;4985396;28;19921;-76
2023/02/08 06:00:20;;;;;;;;;;;;;;;4.88;64.90;100759.53;4994053;28;19953;-77
2023/02/08 06:02:45;;;;;;;;;;;;;;;5.12;62.75;100759.91;4976123;28;20060;-73
2023/02/08 06:05:10;;;;;;;;;;;;;;;5.20;59.72;100765.81;4982122;28;19924;-73
2023/02/08 06:07:35;;;;;;;;;;;;;;;5.18;56.58;100764.13;4997278;28;19918;-75
2023/02/08 06:10:01;;;;;;;;;;;;;;;5.07;54.07;100765.19;4997621;28;19918;-74
2023/02/08 06:12:26;;;;;;;;;;;;;;;4.97;52.50;100768.88;4997595;28;19917;-74
2023/02/08 06:14:52;;;;;;;;;;;;;;;4.87;51.16;100775.97;4996711;28;19921;-75
2023/02/08 06:17:17;;;;;;;;;;;;;;;5.40;70.27;100777.44;4998819;28;19917;-75
2023/02/08 06:19:42;;;;;;;;;;;;;;;5.54;66.86;100772.81;4975745;28;19922;-74
2023/02/08 06:22:08;;;;;;;;;;;;;;;5.40;60.33;100773.13;4976257;28;20397;-74
2023/02/08 06:24:33;;;;;;;;;;;;;;;5.28;57.15;100778.56;4976511;28;19950;-75
2023/02/08 06:26:58;;;;;;;;;;;;;;;5.19;55.45;100786.56;4976285;28;19984;-74
2023/02/08 06:29:24;;;;;;;;;;;;;;;5.10;54.32;100782.41;4976559;28;19925;-73
2023/02/08 06:31:49;;;;;;;;;;;;;;;5.02;52.68;100784.31;4977032;28;19925;-74
2023/02/08 06:34:14;;;;;;;;;;;;;;;4.99;52.04;100785.22;4993511;28;20393;-74
2023/02/08 06:36:39;;;;;;;;;;;;;;;5.00;50.40;100781.75;4976942;28;20012;-77
2023/02/08 06:39:05;;;;;;;;;;;;;;;5.12;48.70;100778.03;4993477;28;19917;-77
2023/02/08 06:41:30;;;;;;;;;;;;;;;5.25;47.96;100765.72;4977428;28;19918;-77
2023/02/08 06:43:58;;;;;;;;;;;;;;;5.35;46.90;100772.38;4977065;28;20004;-78
2023/02/08 06:46:23;;;;;;;;;;;;;;;5.47;46.04;100775.56;4993641;28;20377;-78
2023/02/08 06:48:49;;;;;;;;;;;;;;;6.31;44.17;100773.56;4977488;28;20016;-80
2023/02/08 06:51:14;;;;;;;;;;;;;;;6.41;42.81;100773.31;4977219;28;19925;-78
2023/02/08 06:53:39;;;;;;;;;;;;;;;6.35;42.29;100779.50;4977219;28;19921;-76
2023/02/08 06:56:05;;;;;;;;;;;;;;;6.43;41.97;100787.09;4976837;28;20016;-78
2023/02/08 06:58:30;;;;;;;;;;;;;;;6.47;41.21;100783.53;4977137;28;19968;-78
2023/02/08 07:00:55;;;;;;;;;;;;;;;6.49;40.69;100797.31;4993542;28;19918;-78
2023/02/08 07:03:21;;;;;;;;;;;;;;;7.62;38.88;100800.13;4976966;28;19918;-77
2023/02/08 07:05:46;;;;;;;;;;;;;;;7.23;37.91;100797.88;4977028;28;19952;-77
2023/02/08 07:08:12;;;;;;;;;;;;;;;7.15;38.47;100792.06;4992973;28;19921;-78
2023/02/08 07:10:38;;;;;;;;;;;;;;;7.17;38.27;100803.25;4977081;28;20300;-77
2023/02/08 07:13:08;;;;;;;;;;;;;;;7.10;37.18;100802.56;4977453;28;19918;-76
2023/02/08 07:15:34;;;;;;;;;;;;;;;7.20;42.76;100801.41;4992682;28;19964;-76
2023/02/08 07:17:59;;;;;;;;;;;;;;;7.27;39.94;100811.59;4976804;28;19918;-77
2023/02/08 07:20:24;;;;;;;;;;;;;;;9.04;36.06;100809.28;4992841;28;19918;-76
2023/02/08 07:22:50;;;;;;;;;;;;;;;8.64;54.73;100826.31;4977317;28;19953;-76
2023/02/08 07:25:15;;;;;;;;;;;;;;;9.24;45.21;100821.53;4993134;28;19918;-77
2023/02/08 07:27:44;;;;;;;;;;;;;;;10.71;39.74;100818.28;4977123;28;20017;-77
2023/02/08 07:30:09;;;;;;;;;;;;;;;11.63;37.89;100813.25;4976338;28;19928;-78
2023/02/08 07:32:34;;;;;;;;;;;;;;;11.62;35.83;100814.16;4976348;28;20005;-78
2023/02/08 07:35:00;;;;;;;;;;;;;;;11.72;34.39;100820.66;4976796;28;19918;-79
2023/02/08 07:37:26;;;;;;;;;;;;;;;12.12;42.92;100815.28;4977455;28;19917;-81
2023/02/08 07:39:52;;;;;;;;;;;;;;;12.33;38.75;100821.22;4978176;28;19918;-81
2023/02/08 07:42:17;;;;;;;;;;;;;;;13.31;48.56;100830.13;4977114;28;20017;-80
2023/02/08 07:44:43;;;;;;;;;;;;;;;14.25;43.06;100830.16;4993049;28;20387;-81
2023/02/08 07:47:08;;;;;;;;;;;;;;;14.42;36.90;100827.38;4977030;28;19976;-78
2023/02/08 07:49:33;;;;;;;;;;;;;;;14.71;36.13;100818.72;4994212;28;19918;-77
2023/02/08 07:52:00;;;;;;;;;;;;;;;15.19;32.59;100827.16;4976642;28;19989;-80
2023/02/08 07:54:25;;;;;;;;;;;;;;;15.57;30.16;100831.78;4992724;28;20365;-78
2023/02/08 07:56:50;;;;;;;;;;;;;;;16.14;39.39;100822.03;4976594;28;19945;-86
2023/02/08 07:59:16;;;;;;;;;;;;;;;16.78;35.69;100836.13;4982895;28;19925;-78
2023/02/08 08:01:41;;;;;;;;;;;;;;;17.05;30.61;100834.34;4975297;28;20380;-78
2023/02/08 08:04:06;;;;;;;;;;;;;;;17.11;27.72;100836.53;5003385;28;19918;-78
2023/02/08 08:06:32;;;;;;;;;;;;;;;17.34;26.50;100840.19;4985082;28;20060;-79
2023/02/08 08:08:57;;;;;;;;;;;;;;;17.48;24.69;100841.84;4983331;28;20388;-79
2023/02/08 08:11:22;;;;;;;;;;;;;;;17.58;23.36;100834.94;4980014;28;19921;-78
2023/02/08 08:13:48;;;;;;;;;;;;;;;17.75;22.69;100838.16;4997789;28;19922;-79
2023/02/08 08:16:13;;;;;;;;;;;;;;;17.94;21.83;100835.88;4980952;28;19922;-83
2023/02/08 08:18:38;;;;;;;;;;;;;;;18.02;20.82;100848.53;4981116;28;19992;-79
2023/02/08 08:21:04;;;;;;;;;;;;;;;18.17;20.59;100851.81;4985153;28;19922;-78
2023/02/08 08:23:31;;;;;;;;;;;;;;;18.21;20.58;100840.06;4975616;28;19952;-80
2023/02/08 08:25:57;;;;;;;;;;;;;;;18.29;20.09;100836.84;4985840;28;19925;-80
2023/02/08 08:28:22;;;;;;;;;;;;;;;18.43;19.95;100826.91;4986481;28;19921;-80
2023/02/08 08:30:47;;;;;;;;;;;;;;;18.60;19.51;100838.84;4987730;28;19924;-80
2023/02/08 08:33:13;;;;;;;;;;;;;;;18.65;19.34;100837.66;4975031;28;20496;-80
2023/02/08 08:35:38;;;;;;;;;;;;;;;18.73;19.21;100844.03;4987062;28;20315;-80
2023/02/08 08:38:04;;;;;;;;;;;;;;;18.93;19.37;100847.00;4971800;28;19917;-81
2023/02/08 08:40:29;;;;;;;;;;;;;;;19.04;19.21;100851.44;4979290;28;19917;-80
2023/02/08 08:42:55;;;;;;;;;;;;;;;19.14;19.01;100858.53;4969751;28;20016;-80
2023/02/08 08:45:20;;;;;;;;;;;;;;;19.26;18.98;100853.22;4989083;28;20352;-80
2023/02/08 08:47:46;;;;;;;;;;;;;;;19.35;18.89;100860.44;4978095;28;19922;-80
2023/02/08 08:50:11;;;;;;;;;;;;;;;19.43;19.00;100865.13;4990328;28;20377;-83
2023/02/08 08:52:38;;;;;;;;;;;;;;;19.65;18.67;100865.09;4977541;28;20487;-78
2023/02/08 08:55:04;;;;;;;;;;;;;;;19.77;18.50;100865.13;4973031;28;19980;-78
2023/02/08 08:57:29;;;;;;;;;;;;;;;19.86;18.38;100880.25;4962506;28;19930;-79
2023/02/08 08:59:54;;;;;;;;;;;;;;;19.86;18.07;100869.63;4978161;28;19949;-78
2023/02/08 09:02:20;;;;;;;;;;;;;;;19.88;17.86;100871.22;4987289;28;19918;-81
2023/02/08 09:04:45;;;;;;;;;;;;;;;19.96;17.70;100872.41;4972675;28;19959;-78
2023/02/08 09:07:10;;;;;;;;;;;;;;;19.98;17.28;100865.16;4988975;28;19917;-79
2023/02/08 09:09:36;;;;;;;;;;;;;;;19.99;17.12;100862.38;4967668;28;19921;-80
2023/02/08 09:12:01;;;;;;;;;;;;;;;20.05;16.95;100871.63;4967147;28;20300;-78
2023/02/08 09:14:27;;;;;;;;;;;;;;;20.05;16.66;100874.28;4986875;28;20393;-79
2023/02/08 09:16:52;;;;;;;;;;;;;;;20.15;16.57;100880.50;4986161;28;19984;-74
2023/02/08 09:19:17;;;;;;;;;;;;;;;20.24;16.49;100878.88;4987213;28;19926;-83
2023/02/08 09:21:43;;;;;;;;;;;;;;;20.41;16.26;100886.31;4975281;28;19925;-72
2023/02/08 09:24:08;;;;;;;;;;;;;;;20.74;24.59;100896.88;5002258;28;19922;-73
2023/02/08 09:26:34;;;;;;;;;;;;;;;21.08;20.83;100897.50;4978740;28;20274;-74
2023/02/08 09:28:59;;;;;;;;;;;;;;;21.75;18.45;100911.16;4978446;28;20407;-75
2023/02/08 09:31:28;;;;;;;;;;;;;;;22.89;16.53;100897.31;4962460;28;19987;-74
2023/02/08 09:33:55;;;;;;;;;;;;;;;24.39;14.47;100884.53;4978482;28;19984;-74
2023/02/08 09:36:20;;;;;;;;;;;;;;;25.66;13.02;100898.28;4962229;28;19918;-73
2023/02/08 09:38:46;;;;;;;;;;;;;;;26.87;11.59;100892.34;4961887;28;19918;-73
2023/02/08 09:41:30;;;;;;;;;;;;;;;26.97;11.17;100881.41;4978902;28;19918;-74
2023/02/08 09:44:13;;;;;;;;;;;;;;;26.11;11.55;100894.38;4978104;28;19940;-74
2023/02/08 09:46:39;;;;;;;;;;;;;;;25.17;12.29;100890.03;4996267;28;19918;-75
2023/02/08 09:49:10;;;;;;;;;;;;;;;24.32;13.75;100886.16;4978657;28;19941;-73
2023/02/08 09:51:54;;;;;;;;;;;;;;;23.60;13.68;100885.25;4962697;28;19924;-75
2023/02/08 09:54:21;;;;;;;;;;;;;;;23.20;14.07;100875.75;4977562;28;19922;-74
2023/02/08 09:56:47;;;;;;;;;;;;;;;22.93;13.95;100885.41;4961631;28;19984;-76
2023/02/08 09:59:14;;;;;;;;;;;;;;;22.76;14.23;100881.66;4978270;28;19960;-73
2023/02/08 10:01:39;;;;;;;;;;;;;;;22.82;14.11;100880.22;4977898;28;19918;-74
2023/02/08 10:04:10;;;;;;;;;;;;;;;22.82;13.83;100875.75;4978292;28;19925;-74
2023/02/08 10:06:36;;;;;;;;;;;;;;;22.77;13.68;100867.34;4978016;28;19922;-77
2023/02/08 10:09:03;;;;;;;;;;;;;;;22.74;14.09;100863.16;4977835;28;20361;-77
2023/02/08 10:11:47;;;;;;;;;;;;;;;22.58;14.14;100861.09;4962050;28;19921;-77
2023/02/08 10:14:23;;;;;;;;;;;;;;;22.51;13.95;100859.16;4978085;28;20380;-77
2023/02/08 10:17:05;;;;;;;;;;;;;;;22.38;13.94;100862.13;4961323;28;19917;-78
2023/02/08 10:19:39;;;;;;;;;;;;;;;22.29;13.94;100860.25;4978341;28;19917;-76
2023/02/08 10:22:23;;;;;;;;;;;;;;;22.04;13.84;100863.38;4977850;28;19940;-79
2023/02/08 10:24:48;;;;;;;;;;;;;;;21.84;14.06;100867.81;4995181;28;19917;-78
2023/02/08 10:27:15;;;;;;;;;;;;;;;21.75;14.48;100868.63;4995575;28;20395;-77
2023/02/08 10:29:49;;;;;;;;;;;;;;;21.52;14.41;100872.50;4961427;28;19918;-78
2023/02/08 10:32:34;;;;;;;;;;;;;;;21.39;14.32;100862.09;4995201;28;19918;-78
2023/02/08 10:35:01;;;;;;;;;;;;;;;21.15;14.71;100872.06;4962381;28;20385;-76
2023/02/08 10:37:27;;;;;;;;;;;;;;;20.96;15.03;100879.97;4961234;28;19918;-76
2023/02/08 10:39:52;;;;;;;;;;;;;;;20.63;15.04;100884.50;4977674;28;19953;-79
2023/02/08 10:42:19;;;;;;;;;;;;;;;20.35;15.33;100870.03;4977605;28;20016;-80
2023/02/08 10:44:48;;;;;;;;;;;;;;;20.19;15.48;100876.66;4978303;28;20357;-77
2023/02/08 10:47:16;;;;;;;;;;;;;;;19.94;15.47;100877.81;4977826;28;19924;-77
2023/02/08 10:49:41;;;;;;;;;;;;;;;19.37;15.79;100877.06;4960718;28;19918;-78
2023/02/08 10:52:06;;;;;;;;;;;;;;;19.16;16.04;100869.84;4994711;28;19918;-77
2023/02/08 10:54:32;;;;;;;;;;;;;;;19.05;16.25;100876.94;4960921;28;20393;-77
2023/02/08 10:57:03;;;;;;;;;;;;;;;18.76;16.52;100864.13;4977444;28;19928;-78
2023/02/08 10:59:31;;;;;;;;;;;;;;;18.67;16.59;100859.53;4961713;28;19921;-77
2023/02/08 11:01:56;;;;;;;;;;;;;;;18.54;16.78;100865.78;4977283;28;19924;-79
2023/02/08 11:04:22;;;;;;;;;;;;;;;18.31;16.99;100864.88;4977840;28;19917;-77
2023/02/08 11:06:47;;;;;;;;;;;;;;;18.23;16.92;100868.09;4960974;28;19918;-77
2023/02/08 11:09:22;;;;;;;;;;;;;;;18.11;16.96;100858.44;4976633;28;19964;-77
2023/02/08 11:11:49;;;;;;;;;;;;;;;17.99;17.07;100867.25;4977354;28;20357;-76
2023/02/08 11:14:25;;;;;;;;;;;;;;;17.90;17.20;100863.50;4960992;28;19918;-77
2023/02/08 11:16:55;;;;;;;;;;;;;;;17.64;17.41;100862.72;4960769;28;19918;-78
2023/02/08 11:19:34;;;;;;;;;;;;;;;17.52;17.60;100854.72;4976601;28;19925;-76
2023/02/08 11:22:00;;;;;;;;;;;;;;;17.32;17.87;100855.31;4960736;28;19918;-78
2023/02/08 11:24:28;;;;;;;;;;;;;;;17.17;17.89;100862.50;4976907;28;19972;-77
2023/02/08 11:26:55;;;;;;;;;;;;;;;16.98;17.82;100852.38;4976868;28;20051;-77
2023/02/08 11:29:28;;;;;;;;;;;;;;;16.74;18.00;100842.53;4960355;28;19967;-77
2023/02/08 11:31:56;;;;;;;;;;;;;;;16.51;18.25;100838.00;4976918;28;19921;-77
2023/02/08 11:34:25;;;;;;;;;;;;;;;16.26;18.22;100834.38;4976626;28;20304;-77
2023/02/08 11:36:50;;;;;;;;;;;;;;;15.96;18.56;100839.91;4976785;28;20313;-78
2023/02/08 11:39:17;;;;;;;;;;;;;;;15.65;18.74;100839.19;4976520;28;19925;-77
2023/02/08 11:41:46;;;;;;;;;;;;;;;15.40;19.13;100824.13;4960311;28;19925;-78
2023/02/08 11:44:13;;;;;;;;;;;;;;;15.14;19.52;100832.72;4976291;28;20388;-79
2023/02/08 11:46:41;;;;;;;;;;;;;;;14.93;19.51;100834.88;4960088;28;20381;-77
2023/02/08 11:49:12;;;;;;;;;;;;;;;14.71;19.90;100829.25;4976202;28;19918;-80
2023/02/08 11:51:37;;;;;;;;;;;;;;;14.53;19.95;100824.13;4960368;28;20020;-78
2023/02/08 11:54:03;;;;;;;;;;;;;;;14.35;20.28;100833.09;4959984;28;20004;-77
2023/02/08 11:56:29;;;;;;;;;;;;;;;14.10;20.33;100830.09;4976181;28;19926;-76
2023/02/08 11:59:02;;;;;;;;;;;;;;;13.93;20.54;100840.69;4960141;28;19918;-76
2023/02/08 12:01:28;;;;;;;;;;;;;;;13.63;20.68;100835.41;4960050;28;20395;-76
2023/02/08 12:03:54;;;;;;;;;;;;;;;13.43;20.97;100828.66;4959895;28;20000;-77
2023/02/08 12:06:25;;;;;;;;;;;;;;;13.24;21.22;100834.84;4975993;28;19952;-76
2023/02/08 12:09:08;;;;;;;;;;;;;;;13.08;21.51;100833.97;4993489;28;19917;-76
2023/02/08 12:11:38;;;;;;;;;;;;;;;12.84;21.28;100824.72;4960044;28;19918;-78
2023/02/08 12:14:09;;;;;;;;;;;;;;;12.71;21.75;100835.91;4976116;28;19969;-78
2023/02/08 12:16:35;;;;;;;;;;;;;;;12.56;21.83;100824.47;4976310;28;19925;-77
2023/02/08 12:19:06;;;;;;;;;;;;;;;12.43;22.20;100838.19;4993382;28;20009;-77
2023/02/08 12:21:32;;;;;;;;;;;;;;;12.28;22.00;100828.47;4993222;28;20393;-76
2023/02/08 12:23:59;;;;;;;;;;;;;;;12.14;22.21;100826.53;4975898;28;19964;-77
2023/02/08 12:26:43;;;;;;;;;;;;;;;12.02;22.61;100835.84;4959528;28;20419;-77
2023/02/08 12:29:12;;;;;;;;;;;;;;;11.90;22.60;100824.16;4975720;28;19918;-76
2023/02/08 12:31:46;;;;;;;;;;;;;;;11.80;22.71;100827.28;4959178;28;20382;-80
2023/02/08 12:34:20;;;;;;;;;;;;;;;11.71;22.84;100833.81;4965948;28;20468;-77
2023/02/08 12:36:48;;;;;;;;;;;;;;;11.59;23.15;100835.22;4984956;28;19918;-76
2023/02/08 12:42:01;;;;;;;;;;;;;;;11.35;23.22;100818.91;5006666;28;20451;-77
2023/02/08 12:44:36;;;;;;;;;;;;;;;11.28;23.68;100827.97;5013067;28;19924;-83